KCRQ

Mc Clellan-Palomar Airport

Carlsbad, California, USA
METAR KCRQ 201853Z 24008KT 10SM CLR 26/02 A2993 RMK AO2 SLP131 T02610022
Observed Flight Rules
Oct-20 @ 18:53 UTC (an hour ago) Visual Flight Rules
Wind Visibility Clouds
240° at 8 knots 10 miles
  • Clear skies
Temperatures Readings
Current 26°C / 79°F
Dewpoint 2°C / 36°F
Humidity 21%
Altimeter 29.93" Hg
Pressure 1013.1 hPa
Elevation 99
METAR KCRQ 201853Z 24008KT 10SM CLR 26/02 A2993 RMK AO2 SLP131 T02610022
Observed Flight Rules
Oct-20 @ 18:53 UTC
(an hour ago)
VFR
Wind Visibility
240° at 8 knots 10 miles
Clouds
  • Clear skies
Temperature Dewpoint
26°C / 79°F 2°C / 36°F
Humidity Altimeter Pressure
21% 29.93" Hg 1013.1 hPa